sensor_id;sensor_type;location;lat;lon;timestamp;P1;durP1;ratioP1;P2;durP2;ratioP2
62024;SDS011;47978;49.118;12.146;2022-07-29T00:01:50;3.33;;;2.08;;
62024;SDS011;47978;49.118;12.146;2022-07-29T00:04:16;4.43;;;2.63;;
62024;SDS011;47978;49.118;12.146;2022-07-29T00:06:43;2.92;;;1.88;;
62024;SDS011;47978;49.118;12.146;2022-07-29T00:09:11;2.55;;;1.92;;
62024;SDS011;47978;49.118;12.146;2022-07-29T00:11:38;2.92;;;2.05;;
62024;SDS011;47978;49.118;12.146;2022-07-29T00:14:04;5.55;;;2.40;;
62024;SDS011;47978;49.118;12.146;2022-07-29T00:16:31;4.00;;;2.35;;
62024;SDS011;47978;49.118;12.146;2022-07-29T00:18:58;4.20;;;2.20;;
62024;SDS011;47978;49.118;12.146;2022-07-29T00:21:27;3.53;;;2.05;;
62024;SDS011;47978;49.118;12.146;2022-07-29T00:23:54;4.65;;;1.90;;
62024;SDS011;47978;49.118;12.146;2022-07-29T00:26:22;4.18;;;2.20;;
62024;SDS011;47978;49.118;12.146;2022-07-29T00:28:49;3.53;;;2.15;;
62024;SDS011;47978;49.118;12.146;2022-07-29T00:31:15;7.75;;;2.25;;
62024;SDS011;47978;49.118;12.146;2022-07-29T00:33:42;5.07;;;2.05;;
62024;SDS011;47978;49.118;12.146;2022-07-29T00:36:08;2.45;;;1.80;;
62024;SDS011;47978;49.118;12.146;2022-07-29T00:38:35;5.63;;;2.13;;
62024;SDS011;47978;49.118;12.146;2022-07-29T00:41:02;4.90;;;2.42;;
62024;SDS011;47978;49.118;12.146;2022-07-29T00:43:30;3.85;;;2.00;;
62024;SDS011;47978;49.118;12.146;2022-07-29T00:45:56;4.32;;;2.25;;
62024;SDS011;47978;49.118;12.146;2022-07-29T00:48:23;3.58;;;2.00;;
62024;SDS011;47978;49.118;12.146;2022-07-29T00:50:49;3.80;;;2.05;;
62024;SDS011;47978;49.118;12.146;2022-07-29T00:53:16;3.17;;;2.30;;
62024;SDS011;47978;49.118;12.146;2022-07-29T00:55:43;2.78;;;2.28;;
62024;SDS011;47978;49.118;12.146;2022-07-29T00:58:10;3.83;;;2.35;;
62024;SDS011;47978;49.118;12.146;2022-07-29T01:00:39;2.92;;;2.08;;
62024;SDS011;47978;49.118;12.146;2022-07-29T01:03:06;4.80;;;1.95;;
62024;SDS011;47978;49.118;12.146;2022-07-29T01:05:33;5.82;;;2.53;;
62024;SDS011;47978;49.118;12.146;2022-07-29T01:08:16;6.50;;;2.28;;
62024;SDS011;47978;49.118;12.146;2022-07-29T01:10:43;4.40;;;2.15;;
62024;SDS011;47978;49.118;12.146;2022-07-29T01:13:11;2.40;;;1.90;;
62024;SDS011;47978;49.118;12.146;2022-07-29T01:15:41;3.33;;;2.05;;
62024;SDS011;47978;49.118;12.146;2022-07-29T01:18:16;4.78;;;2.22;;
62024;SDS011;47978;49.118;12.146;2022-07-29T01:23:48;3.58;;;2.47;;
62024;SDS011;47978;49.118;12.146;2022-07-29T01:26:31;3.47;;;2.20;;
62024;SDS011;47978;49.118;12.146;2022-07-29T01:29:09;5.70;;;2.40;;
62024;SDS011;47978;49.118;12.146;2022-07-29T01:31:42;5.60;;;2.28;;
62024;SDS011;47978;49.118;12.146;2022-07-29T01:34:27;4.75;;;2.40;;
62024;SDS011;47978;49.118;12.146;2022-07-29T01:37:03;2.95;;;2.15;;
62024;SDS011;47978;49.118;12.146;2022-07-29T01:39:35;4.32;;;2.40;;
62024;SDS011;47978;49.118;12.146;2022-07-29T01:42:05;3.33;;;2.03;;
62024;SDS011;47978;49.118;12.146;2022-07-29T01:44:41;3.38;;;2.13;;
62024;SDS011;47978;49.118;12.146;2022-07-29T01:47:15;6.13;;;2.33;;
62024;SDS011;47978;49.118;12.146;2022-07-29T01:49:47;3.95;;;2.00;;
62024;SDS011;47978;49.118;12.146;2022-07-29T01:52:19;3.47;;;2.38;;
62024;SDS011;47978;49.118;12.146;2022-07-29T01:54:49;5.32;;;2.17;;
62024;SDS011;47978;49.118;12.146;2022-07-29T01:57:21;3.75;;;2.20;;
62024;SDS011;47978;49.118;12.146;2022-07-29T01:59:55;6.32;;;2.20;;
62024;SDS011;47978;49.118;12.146;2022-07-29T02:02:24;2.85;;;2.10;;
62024;SDS011;47978;49.118;12.146;2022-07-29T02:04:54;5.82;;;2.20;;
62024;SDS011;47978;49.118;12.146;2022-07-29T02:07:23;4.30;;;2.33;;
62024;SDS011;47978;49.118;12.146;2022-07-29T02:09:53;5.93;;;2.40;;
62024;SDS011;47978;49.118;12.146;2022-07-29T02:12:21;5.50;;;2.13;;
62024;SDS011;47978;49.118;12.146;2022-07-29T02:14:51;3.88;;;2.10;;
62024;SDS011;47978;49.118;12.146;2022-07-29T02:17:22;3.15;;;2.40;;
62024;SDS011;47978;49.118;12.146;2022-07-29T02:19:52;3.70;;;2.25;;
62024;SDS011;47978;49.118;12.146;2022-07-29T02:22:22;2.80;;;2.17;;
62024;SDS011;47978;49.118;12.146;2022-07-29T02:24:50;3.42;;;2.50;;
62024;SDS011;47978;49.118;12.146;2022-07-29T02:27:19;3.83;;;1.83;;
62024;SDS011;47978;49.118;12.146;2022-07-29T02:29:47;3.33;;;2.20;;
62024;SDS011;47978;49.118;12.146;2022-07-29T02:32:16;3.15;;;2.30;;
62024;SDS011;47978;49.118;12.146;2022-07-29T02:34:45;3.50;;;2.10;;
62024;SDS011;47978;49.118;12.146;2022-07-29T02:37:13;2.88;;;2.35;;
62024;SDS011;47978;49.118;12.146;2022-07-29T02:39:43;4.53;;;2.28;;
62024;SDS011;47978;49.118;12.146;2022-07-29T02:42:11;3.88;;;2.20;;
62024;SDS011;47978;49.118;12.146;2022-07-29T02:44:41;3.30;;;2.20;;
62024;SDS011;47978;49.118;12.146;2022-07-29T02:47:10;3.58;;;2.38;;
62024;SDS011;47978;49.118;12.146;2022-07-29T02:49:43;3.17;;;2.08;;
62024;SDS011;47978;49.118;12.146;2022-07-29T02:52:20;2.92;;;2.28;;
62024;SDS011;47978;49.118;12.146;2022-07-29T02:54:51;4.88;;;2.30;;
62024;SDS011;47978;49.118;12.146;2022-07-29T02:57:21;2.65;;;2.10;;
62024;SDS011;47978;49.118;12.146;2022-07-29T02:59:55;4.25;;;2.40;;
62024;SDS011;47978;49.118;12.146;2022-07-29T03:02:24;3.35;;;2.13;;
62024;SDS011;47978;49.118;12.146;2022-07-29T03:04:54;4.15;;;2.42;;
62024;SDS011;47978;49.118;12.146;2022-07-29T03:07:23;5.03;;;2.70;;
62024;SDS011;47978;49.118;12.146;2022-07-29T03:09:50;5.18;;;2.45;;
62024;SDS011;47978;49.118;12.146;2022-07-29T03:12:18;6.30;;;2.35;;
62024;SDS011;47978;49.118;12.146;2022-07-29T03:14:45;12.15;;;2.67;;
62024;SDS011;47978;49.118;12.146;2022-07-29T03:19:47;3.42;;;2.00;;
62024;SDS011;47978;49.118;12.146;2022-07-29T03:22:15;2.75;;;2.08;;
62024;SDS011;47978;49.118;12.146;2022-07-29T03:24:44;3.85;;;2.60;;
62024;SDS011;47978;49.118;12.146;2022-07-29T03:27:12;3.25;;;1.92;;
62024;SDS011;47978;49.118;12.146;2022-07-29T03:29:39;4.43;;;2.28;;
62024;SDS011;47978;49.118;12.146;2022-07-29T03:32:08;4.07;;;2.25;;
62024;SDS011;47978;49.118;12.146;2022-07-29T03:34:36;3.60;;;2.05;;
62024;SDS011;47978;49.118;12.146;2022-07-29T03:37:03;3.33;;;1.90;;
62024;SDS011;47978;49.118;12.146;2022-07-29T03:39:32;3.53;;;2.50;;
62024;SDS011;47978;49.118;12.146;2022-07-29T03:42:01;3.42;;;2.20;;
62024;SDS011;47978;49.118;12.146;2022-07-29T03:44:30;2.50;;;2.00;;
62024;SDS011;47978;49.118;12.146;2022-07-29T03:46:58;3.08;;;2.35;;
62024;SDS011;47978;49.118;12.146;2022-07-29T03:49:26;5.78;;;2.58;;
62024;SDS011;47978;49.118;12.146;2022-07-29T03:51:54;4.30;;;2.10;;
62024;SDS011;47978;49.118;12.146;2022-07-29T03:54:21;3.53;;;2.30;;
62024;SDS011;47978;49.118;12.146;2022-07-29T03:56:50;5.63;;;2.53;;
62024;SDS011;47978;49.118;12.146;2022-07-29T03:59:19;3.42;;;2.25;;
62024;SDS011;47978;49.118;12.146;2022-07-29T04:01:47;4.70;;;2.10;;
62024;SDS011;47978;49.118;12.146;2022-07-29T04:04:14;4.57;;;2.33;;
62024;SDS011;47978;49.118;12.146;2022-07-29T04:06:42;7.22;;;2.20;;
62024;SDS011;47978;49.118;12.146;2022-07-29T04:09:13;4.57;;;2.55;;
62024;SDS011;47978;49.118;12.146;2022-07-29T04:11:40;3.63;;;2.30;;
62024;SDS011;47978;49.118;12.146;2022-07-29T04:14:29;4.65;;;2.10;;
62024;SDS011;47978;49.118;12.146;2022-07-29T04:16:56;4.85;;;2.40;;
62024;SDS011;47978;49.118;12.146;2022-07-29T04:19:22;4.65;;;2.20;;
62024;SDS011;47978;49.118;12.146;2022-07-29T04:21:49;4.32;;;2.10;;
62024;SDS011;47978;49.118;12.146;2022-07-29T04:24:15;2.97;;;2.20;;
62024;SDS011;47978;49.118;12.146;2022-07-29T04:26:43;4.35;;;2.30;;
62024;SDS011;47978;49.118;12.146;2022-07-29T04:29:11;4.78;;;2.42;;
62024;SDS011;47978;49.118;12.146;2022-07-29T04:31:39;3.90;;;2.40;;
62024;SDS011;47978;49.118;12.146;2022-07-29T04:34:06;4.00;;;2.00;;
62024;SDS011;47978;49.118;12.146;2022-07-29T04:36:33;3.90;;;2.40;;
62024;SDS011;47978;49.118;12.146;2022-07-29T04:39:00;3.17;;;2.25;;
62024;SDS011;47978;49.118;12.146;2022-07-29T04:41:26;3.50;;;2.50;;
62024;SDS011;47978;49.118;12.146;2022-07-29T04:43:58;3.40;;;1.98;;
62024;SDS011;47978;49.118;12.146;2022-07-29T04:46:26;3.78;;;2.38;;
62024;SDS011;47978;49.118;12.146;2022-07-29T04:48:54;3.90;;;2.65;;
62024;SDS011;47978;49.118;12.146;2022-07-29T04:51:21;6.03;;;2.53;;
62024;SDS011;47978;49.118;12.146;2022-07-29T04:53:48;3.45;;;2.45;;
62024;SDS011;47978;49.118;12.146;2022-07-29T04:56:14;3.03;;;2.38;;
62024;SDS011;47978;49.118;12.146;2022-07-29T04:58:41;4.30;;;2.40;;
62024;SDS011;47978;49.118;12.146;2022-07-29T05:01:07;6.65;;;2.38;;
62024;SDS011;47978;49.118;12.146;2022-07-29T05:03:34;7.70;;;2.40;;
62024;SDS011;47978;49.118;12.146;2022-07-29T05:06:02;3.13;;;2.17;;
62024;SDS011;47978;49.118;12.146;2022-07-29T05:08:28;4.15;;;2.30;;
62024;SDS011;47978;49.118;12.146;2022-07-29T05:10:55;4.43;;;2.53;;
62024;SDS011;47978;49.118;12.146;2022-07-29T05:13:22;3.15;;;2.50;;
62024;SDS011;47978;49.118;12.146;2022-07-29T05:15:48;3.60;;;2.17;;
62024;SDS011;47978;49.118;12.146;2022-07-29T05:18:15;8.73;;;2.70;;
62024;SDS011;47978;49.118;12.146;2022-07-29T05:20:41;3.17;;;2.13;;
62024;SDS011;47978;49.118;12.146;2022-07-29T05:23:09;4.13;;;2.50;;
62024;SDS011;47978;49.118;12.146;2022-07-29T05:25:36;8.95;;;2.38;;
62024;SDS011;47978;49.118;12.146;2022-07-29T05:28:09;11.82;;;2.70;;
62024;SDS011;47978;49.118;12.146;2022-07-29T05:30:35;4.30;;;2.50;;
62024;SDS011;47978;49.118;12.146;2022-07-29T05:33:02;3.65;;;2.33;;
62024;SDS011;47978;49.118;12.146;2022-07-29T05:35:28;4.90;;;2.40;;
62024;SDS011;47978;49.118;12.146;2022-07-29T05:37:55;7.72;;;2.50;;
62024;SDS011;47978;49.118;12.146;2022-07-29T05:40:23;3.67;;;2.08;;
62024;SDS011;47978;49.118;12.146;2022-07-29T05:42:50;3.65;;;2.35;;
62024;SDS011;47978;49.118;12.146;2022-07-29T05:45:16;3.65;;;2.40;;
62024;SDS011;47978;49.118;12.146;2022-07-29T05:47:43;3.38;;;2.35;;
62024;SDS011;47978;49.118;12.146;2022-07-29T05:50:09;4.38;;;2.40;;
62024;SDS011;47978;49.118;12.146;2022-07-29T05:52:36;3.53;;;2.35;;
62024;SDS011;47978;49.118;12.146;2022-07-29T05:55:03;4.18;;;2.70;;
62024;SDS011;47978;49.118;12.146;2022-07-29T05:57:31;3.58;;;2.75;;
62024;SDS011;47978;49.118;12.146;2022-07-29T05:59:58;4.03;;;2.10;;
62024;SDS011;47978;49.118;12.146;2022-07-29T06:02:24;4.50;;;2.30;;
62024;SDS011;47978;49.118;12.146;2022-07-29T06:04:51;2.97;;;2.38;;
62024;SDS011;47978;49.118;12.146;2022-07-29T06:07:18;5.88;;;2.67;;
62024;SDS011;47978;49.118;12.146;2022-07-29T06:09:44;3.28;;;2.33;;
62024;SDS011;47978;49.118;12.146;2022-07-29T06:12:11;8.05;;;2.85;;
62024;SDS011;47978;49.118;12.146;2022-07-29T06:14:39;3.55;;;2.70;;
62024;SDS011;47978;49.118;12.146;2022-07-29T06:17:05;6.93;;;2.72;;
62024;SDS011;47978;49.118;12.146;2022-07-29T06:19:33;7.45;;;2.55;;
62024;SDS011;47978;49.118;12.146;2022-07-29T06:22:00;3.67;;;2.55;;
62024;SDS011;47978;49.118;12.146;2022-07-29T06:24:27;4.93;;;3.17;;
62024;SDS011;47978;49.118;12.146;2022-07-29T06:26:53;5.55;;;2.97;;
62024;SDS011;47978;49.118;12.146;2022-07-29T06:29:20;3.35;;;2.17;;
62024;SDS011;47978;49.118;12.146;2022-07-29T06:31:48;7.60;;;2.50;;
62024;SDS011;47978;49.118;12.146;2022-07-29T06:34:15;5.45;;;3.00;;
62024;SDS011;47978;49.118;12.146;2022-07-29T06:36:42;7.40;;;2.70;;
62024;SDS011;47978;49.118;12.146;2022-07-29T06:39:11;7.43;;;2.80;;
62024;SDS011;47978;49.118;12.146;2022-07-29T06:41:37;3.38;;;2.40;;
62024;SDS011;47978;49.118;12.146;2022-07-29T06:44:04;5.10;;;2.50;;
62024;SDS011;47978;49.118;12.146;2022-07-29T06:46:30;10.57;;;2.88;;
62024;SDS011;47978;49.118;12.146;2022-07-29T06:48:59;5.80;;;2.60;;
62024;SDS011;47978;49.118;12.146;2022-07-29T06:51:26;6.18;;;2.47;;
62024;SDS011;47978;49.118;12.146;2022-07-29T06:53:52;5.88;;;2.70;;
62024;SDS011;47978;49.118;12.146;2022-07-29T06:56:28;5.15;;;2.90;;
62024;SDS011;47978;49.118;12.146;2022-07-29T06:58:55;4.30;;;2.55;;
62024;SDS011;47978;49.118;12.146;2022-07-29T07:01:22;4.82;;;2.83;;
62024;SDS011;47978;49.118;12.146;2022-07-29T07:03:48;3.60;;;2.65;;
62024;SDS011;47978;49.118;12.146;2022-07-29T07:06:16;3.85;;;2.28;;
62024;SDS011;47978;49.118;12.146;2022-07-29T07:08:43;4.55;;;2.30;;
62024;SDS011;47978;49.118;12.146;2022-07-29T07:11:09;4.32;;;2.40;;
62024;SDS011;47978;49.118;12.146;2022-07-29T07:13:36;3.38;;;2.30;;
62024;SDS011;47978;49.118;12.146;2022-07-29T07:16:03;3.70;;;2.80;;
62024;SDS011;47978;49.118;12.146;2022-07-29T07:18:30;3.65;;;2.45;;
62024;SDS011;47978;49.118;12.146;2022-07-29T07:20:57;6.88;;;2.70;;
62024;SDS011;47978;49.118;12.146;2022-07-29T07:23:25;4.72;;;2.50;;
62024;SDS011;47978;49.118;12.146;2022-07-29T07:25:52;5.55;;;2.50;;
62024;SDS011;47978;49.118;12.146;2022-07-29T07:28:19;8.15;;;2.90;;
62024;SDS011;47978;49.118;12.146;2022-07-29T07:30:50;3.60;;;2.42;;
62024;SDS011;47978;49.118;12.146;2022-07-29T07:33:17;4.07;;;2.78;;
62024;SDS011;47978;49.118;12.146;2022-07-29T07:35:43;7.65;;;2.85;;
62024;SDS011;47978;49.118;12.146;2022-07-29T07:38:10;9.95;;;2.53;;
62024;SDS011;47978;49.118;12.146;2022-07-29T07:40:38;5.03;;;2.72;;
62024;SDS011;47978;49.118;12.146;2022-07-29T07:43:04;7.20;;;3.17;;
62024;SDS011;47978;49.118;12.146;2022-07-29T07:45:31;5.43;;;2.75;;
62024;SDS011;47978;49.118;12.146;2022-07-29T07:47:58;3.97;;;2.35;;
62024;SDS011;47978;49.118;12.146;2022-07-29T07:50:26;6.90;;;3.00;;
62024;SDS011;47978;49.118;12.146;2022-07-29T07:52:53;5.10;;;2.80;;
62024;SDS011;47978;49.118;12.146;2022-07-29T07:55:21;6.60;;;3.08;;
62024;SDS011;47978;49.118;12.146;2022-07-29T07:57:49;4.82;;;2.72;;
62024;SDS011;47978;49.118;12.146;2022-07-29T08:00:16;10.50;;;3.10;;
62024;SDS011;47978;49.118;12.146;2022-07-29T08:02:43;4.70;;;2.78;;
62024;SDS011;47978;49.118;12.146;2022-07-29T08:05:11;7.82;;;2.65;;
62024;SDS011;47978;49.118;12.146;2022-07-29T08:07:38;6.05;;;2.70;;
62024;SDS011;47978;49.118;12.146;2022-07-29T08:10:05;5.60;;;2.53;;
62024;SDS011;47978;49.118;12.146;2022-07-29T08:12:33;3.42;;;2.50;;
62024;SDS011;47978;49.118;12.146;2022-07-29T08:15:01;3.85;;;2.70;;
62024;SDS011;47978;49.118;12.146;2022-07-29T08:17:28;7.60;;;3.20;;
62024;SDS011;47978;49.118;12.146;2022-07-29T08:19:54;6.13;;;3.08;;
62024;SDS011;47978;49.118;12.146;2022-07-29T08:22:21;6.95;;;3.05;;
62024;SDS011;47978;49.118;12.146;2022-07-29T08:24:47;7.15;;;2.90;;
62024;SDS011;47978;49.118;12.146;2022-07-29T08:27:14;4.75;;;2.60;;
62024;SDS011;47978;49.118;12.146;2022-07-29T08:30:02;5.20;;;3.05;;
62024;SDS011;47978;49.118;12.146;2022-07-29T08:32:29;3.58;;;2.50;;
62024;SDS011;47978;49.118;12.146;2022-07-29T08:35:16;4.82;;;3.15;;
62024;SDS011;47978;49.118;12.146;2022-07-29T08:37:42;6.65;;;2.75;;
62024;SDS011;47978;49.118;12.146;2022-07-29T08:40:09;5.95;;;2.85;;
62024;SDS011;47978;49.118;12.146;2022-07-29T08:42:37;7.10;;;2.53;;
62024;SDS011;47978;49.118;12.146;2022-07-29T08:45:05;6.85;;;2.88;;
62024;SDS011;47978;49.118;12.146;2022-07-29T08:47:33;8.18;;;2.70;;
62024;SDS011;47978;49.118;12.146;2022-07-29T08:49:59;6.75;;;2.88;;
62024;SDS011;47978;49.118;12.146;2022-07-29T08:52:26;3.88;;;2.70;;
62024;SDS011;47978;49.118;12.146;2022-07-29T08:54:54;4.45;;;2.92;;
62024;SDS011;47978;49.118;12.146;2022-07-29T08:57:21;4.63;;;3.03;;
62024;SDS011;47978;49.118;12.146;2022-07-29T08:59:49;5.07;;;3.28;;
62024;SDS011;47978;49.118;12.146;2022-07-29T09:02:20;6.38;;;3.15;;
62024;SDS011;47978;49.118;12.146;2022-07-29T09:04:48;4.53;;;2.92;;
62024;SDS011;47978;49.118;12.146;2022-07-29T09:07:15;3.83;;;3.20;;
62024;SDS011;47978;49.118;12.146;2022-07-29T09:09:45;8.45;;;2.83;;
62024;SDS011;47978;49.118;12.146;2022-07-29T09:12:12;3.90;;;2.90;;
62024;SDS011;47978;49.118;12.146;2022-07-29T09:14:54;6.57;;;3.00;;
62024;SDS011;47978;49.118;12.146;2022-07-29T09:20:10;6.43;;;2.92;;
62024;SDS011;47978;49.118;12.146;2022-07-29T09:22:39;4.50;;;2.45;;
62024;SDS011;47978;49.118;12.146;2022-07-29T09:25:07;3.75;;;2.70;;
62024;SDS011;47978;49.118;12.146;2022-07-29T09:27:34;4.10;;;2.78;;
62024;SDS011;47978;49.118;12.146;2022-07-29T09:30:03;3.47;;;2.80;;
62024;SDS011;47978;49.118;12.146;2022-07-29T09:32:31;4.93;;;2.78;;
62024;SDS011;47978;49.118;12.146;2022-07-29T09:35:15;8.75;;;2.90;;
62024;SDS011;47978;49.118;12.146;2022-07-29T09:37:43;3.97;;;2.65;;
62024;SDS011;47978;49.118;12.146;2022-07-29T09:40:11;3.80;;;2.70;;
62024;SDS011;47978;49.118;12.146;2022-07-29T09:42:39;5.95;;;2.70;;
62024;SDS011;47978;49.118;12.146;2022-07-29T09:45:06;4.93;;;2.80;;
62024;SDS011;47978;49.118;12.146;2022-07-29T09:47:43;4.40;;;2.83;;
62024;SDS011;47978;49.118;12.146;2022-07-29T09:50:10;3.88;;;3.30;;
62024;SDS011;47978;49.118;12.146;2022-07-29T09:52:45;3.60;;;2.85;;
62024;SDS011;47978;49.118;12.146;2022-07-29T09:55:13;4.32;;;3.00;;
62024;SDS011;47978;49.118;12.146;2022-07-29T09:57:45;4.22;;;3.08;;
62024;SDS011;47978;49.118;12.146;2022-07-29T10:00:14;7.75;;;3.25;;
62024;SDS011;47978;49.118;12.146;2022-07-29T10:02:43;5.30;;;3.10;;
62024;SDS011;47978;49.118;12.146;2022-07-29T10:05:18;4.30;;;2.63;;
62024;SDS011;47978;49.118;12.146;2022-07-29T10:07:48;4.03;;;3.20;;
62024;SDS011;47978;49.118;12.146;2022-07-29T10:10:23;3.78;;;2.95;;
62024;SDS011;47978;49.118;12.146;2022-07-29T10:15:19;4.25;;;2.80;;
62024;SDS011;47978;49.118;12.146;2022-07-29T10:17:47;5.07;;;2.90;;
62024;SDS011;47978;49.118;12.146;2022-07-29T10:20:15;3.70;;;2.90;;
62024;SDS011;47978;49.118;12.146;2022-07-29T10:22:42;4.40;;;2.70;;
62024;SDS011;47978;49.118;12.146;2022-07-29T10:25:20;6.47;;;2.70;;
62024;SDS011;47978;49.118;12.146;2022-07-29T10:27:47;6.03;;;3.05;;
62024;SDS011;47978;49.118;12.146;2022-07-29T10:30:15;9.25;;;2.92;;
62024;SDS011;47978;49.118;12.146;2022-07-29T10:32:54;3.78;;;2.88;;
62024;SDS011;47978;49.118;12.146;2022-07-29T10:38:41;4.47;;;2.83;;
62024;SDS011;47978;49.118;12.146;2022-07-29T10:41:27;4.03;;;3.08;;
62024;SDS011;47978;49.118;12.146;2022-07-29T10:44:12;5.85;;;3.30;;
62024;SDS011;47978;49.118;12.146;2022-07-29T10:46:44;3.47;;;2.78;;
62024;SDS011;47978;49.118;12.146;2022-07-29T10:49:12;4.97;;;2.95;;
62024;SDS011;47978;49.118;12.146;2022-07-29T10:52:00;5.05;;;3.13;;
62024;SDS011;47978;49.118;12.146;2022-07-29T10:54:41;4.38;;;2.90;;
62024;SDS011;47978;49.118;12.146;2022-07-29T10:57:16;5.22;;;2.70;;
62024;SDS011;47978;49.118;12.146;2022-07-29T10:59:46;4.68;;;2.83;;
62024;SDS011;47978;49.118;12.146;2022-07-29T11:02:40;4.80;;;3.22;;
62024;SDS011;47978;49.118;12.146;2022-07-29T11:07:37;5.60;;;2.97;;
62024;SDS011;47978;49.118;12.146;2022-07-29T11:10:21;3.75;;;2.92;;
62024;SDS011;47978;49.118;12.146;2022-07-29T11:12:58;4.45;;;2.92;;
62024;SDS011;47978;49.118;12.146;2022-07-29T11:15:24;3.60;;;2.55;;
62024;SDS011;47978;49.118;12.146;2022-07-29T11:18:03;6.15;;;3.00;;
62024;SDS011;47978;49.118;12.146;2022-07-29T11:20:41;6.32;;;2.83;;
62024;SDS011;47978;49.118;12.146;2022-07-29T11:23:23;3.67;;;2.90;;
62024;SDS011;47978;49.118;12.146;2022-07-29T11:28:50;3.50;;;2.85;;
62024;SDS011;47978;49.118;12.146;2022-07-29T11:31:33;3.13;;;2.75;;
62024;SDS011;47978;49.118;12.146;2022-07-29T11:34:23;2.70;;;2.00;;
62024;SDS011;47978;49.118;12.146;2022-07-29T11:39:43;5.40;;;2.42;;
62024;SDS011;47978;49.118;12.146;2022-07-29T11:45:09;6.78;;;2.13;;
62024;SDS011;47978;49.118;12.146;2022-07-29T11:47:57;2.95;;;1.63;;
62024;SDS011;47978;49.118;12.146;2022-07-29T11:50:45;4.30;;;2.22;;
62024;SDS011;47978;49.118;12.146;2022-07-29T11:53:13;2.30;;;2.00;;
62024;SDS011;47978;49.118;12.146;2022-07-29T11:55:41;4.38;;;1.90;;
62024;SDS011;47978;49.118;12.146;2022-07-29T11:58:16;3.42;;;1.90;;
62024;SDS011;47978;49.118;12.146;2022-07-29T12:00:52;2.42;;;1.90;;
62024;SDS011;47978;49.118;12.146;2022-07-29T12:03:23;2.53;;;1.90;;
62024;SDS011;47978;49.118;12.146;2022-07-29T12:05:58;3.25;;;1.80;;
62024;SDS011;47978;49.118;12.146;2022-07-29T12:08:25;3.58;;;2.08;;
62024;SDS011;47978;49.118;12.146;2022-07-29T12:10:52;2.40;;;1.85;;
62024;SDS011;47978;49.118;12.146;2022-07-29T12:13:19;4.05;;;1.88;;
62024;SDS011;47978;49.118;12.146;2022-07-29T12:15:55;2.20;;;1.63;;
62024;SDS011;47978;49.118;12.146;2022-07-29T12:18:25;2.85;;;1.70;;
62024;SDS011;47978;49.118;12.146;2022-07-29T12:20:56;4.95;;;1.90;;
62024;SDS011;47978;49.118;12.146;2022-07-29T12:23:24;2.67;;;1.58;;
62024;SDS011;47978;49.118;12.146;2022-07-29T12:25:54;3.40;;;1.70;;
62024;SDS011;47978;49.118;12.146;2022-07-29T12:28:21;2.53;;;1.70;;
62024;SDS011;47978;49.118;12.146;2022-07-29T12:33:22;2.47;;;1.77;;
62024;SDS011;47978;49.118;12.146;2022-07-29T12:35:50;3.63;;;1.63;;
62024;SDS011;47978;49.118;12.146;2022-07-29T12:38:31;3.70;;;1.83;;
62024;SDS011;47978;49.118;12.146;2022-07-29T12:40:59;2.42;;;1.52;;
62024;SDS011;47978;49.118;12.146;2022-07-29T12:43:25;1.88;;;1.60;;
62024;SDS011;47978;49.118;12.146;2022-07-29T12:45:53;2.13;;;1.85;;
62024;SDS011;47978;49.118;12.146;2022-07-29T12:48:32;2.90;;;1.77;;
62024;SDS011;47978;49.118;12.146;2022-07-29T12:51:00;4.43;;;1.80;;
62024;SDS011;47978;49.118;12.146;2022-07-29T12:53:27;2.63;;;1.80;;
62024;SDS011;47978;49.118;12.146;2022-07-29T12:55:56;3.28;;;1.70;;
62024;SDS011;47978;49.118;12.146;2022-07-29T12:58:30;4.25;;;2.10;;
62024;SDS011;47978;49.118;12.146;2022-07-29T13:01:01;2.05;;;1.50;;
62024;SDS011;47978;49.118;12.146;2022-07-29T13:03:40;2.30;;;1.70;;
62024;SDS011;47978;49.118;12.146;2022-07-29T13:06:33;2.65;;;2.05;;
62024;SDS011;47978;49.118;12.146;2022-07-29T13:09:11;2.35;;;1.65;;
62024;SDS011;47978;49.118;12.146;2022-07-29T13:11:39;3.28;;;2.00;;
62024;SDS011;47978;49.118;12.146;2022-07-29T13:14:13;10.93;;;2.20;;
62024;SDS011;47978;49.118;12.146;2022-07-29T13:17:04;6.53;;;2.15;;
62024;SDS011;47978;49.118;12.146;2022-07-29T13:19:35;2.22;;;1.80;;
62024;SDS011;47978;49.118;12.146;2022-07-29T13:22:03;4.05;;;1.92;;
62024;SDS011;47978;49.118;12.146;2022-07-29T13:24:30;2.60;;;2.05;;
62024;SDS011;47978;49.118;12.146;2022-07-29T13:26:57;3.45;;;1.88;;
62024;SDS011;47978;49.118;12.146;2022-07-29T13:29:23;3.97;;;1.80;;
62024;SDS011;47978;49.118;12.146;2022-07-29T13:31:54;3.85;;;1.60;;
62024;SDS011;47978;49.118;12.146;2022-07-29T13:34:23;3.03;;;1.90;;
62024;SDS011;47978;49.118;12.146;2022-07-29T13:36:50;3.30;;;1.65;;
62024;SDS011;47978;49.118;12.146;2022-07-29T13:39:16;2.58;;;1.83;;
62024;SDS011;47978;49.118;12.146;2022-07-29T13:41:43;2.00;;;1.60;;
62024;SDS011;47978;49.118;12.146;2022-07-29T13:44:10;2.17;;;1.90;;
62024;SDS011;47978;49.118;12.146;2022-07-29T13:46:37;3.97;;;2.00;;
62024;SDS011;47978;49.118;12.146;2022-07-29T13:49:05;4.00;;;1.80;;
62024;SDS011;47978;49.118;12.146;2022-07-29T13:51:33;2.55;;;1.75;;
62024;SDS011;47978;49.118;12.146;2022-07-29T13:53:59;4.47;;;2.00;;
62024;SDS011;47978;49.118;12.146;2022-07-29T13:56:27;5.20;;;1.92;;
62024;SDS011;47978;49.118;12.146;2022-07-29T13:58:54;3.95;;;1.80;;
62024;SDS011;47978;49.118;12.146;2022-07-29T14:01:21;6.22;;;1.75;;
62024;SDS011;47978;49.118;12.146;2022-07-29T14:03:47;2.10;;;1.80;;
62024;SDS011;47978;49.118;12.146;2022-07-29T14:06:14;2.80;;;1.67;;
62024;SDS011;47978;49.118;12.146;2022-07-29T14:08:44;2.47;;;1.63;;
62024;SDS011;47978;49.118;12.146;2022-07-29T14:11:11;4.38;;;1.83;;
62024;SDS011;47978;49.118;12.146;2022-07-29T14:13:37;3.95;;;1.95;;
62024;SDS011;47978;49.118;12.146;2022-07-29T14:16:05;3.72;;;1.80;;
62024;SDS011;47978;49.118;12.146;2022-07-29T14:18:31;3.33;;;1.65;;
62024;SDS011;47978;49.118;12.146;2022-07-29T14:20:58;3.05;;;1.70;;
62024;SDS011;47978;49.118;12.146;2022-07-29T14:23:25;5.60;;;1.92;;
62024;SDS011;47978;49.118;12.146;2022-07-29T14:25:53;2.83;;;1.63;;
62024;SDS011;47978;49.118;12.146;2022-07-29T14:28:19;3.53;;;1.90;;
62024;SDS011;47978;49.118;12.146;2022-07-29T14:30:46;3.75;;;1.98;;
62024;SDS011;47978;49.118;12.146;2022-07-29T14:33:13;3.25;;;1.65;;
62024;SDS011;47978;49.118;12.146;2022-07-29T14:35:39;4.18;;;1.88;;
62024;SDS011;47978;49.118;12.146;2022-07-29T14:38:06;3.38;;;1.50;;
62024;SDS011;47978;49.118;12.146;2022-07-29T14:40:32;2.53;;;1.70;;
62024;SDS011;47978;49.118;12.146;2022-07-29T14:43:01;4.28;;;1.80;;
62024;SDS011;47978;49.118;12.146;2022-07-29T14:45:28;3.50;;;1.80;;
62024;SDS011;47978;49.118;12.146;2022-07-29T14:47:55;2.63;;;1.80;;
62024;SDS011;47978;49.118;12.146;2022-07-29T14:50:22;4.72;;;1.80;;
62024;SDS011;47978;49.118;12.146;2022-07-29T14:52:57;2.38;;;1.63;;
62024;SDS011;47978;49.118;12.146;2022-07-29T14:55:24;3.58;;;1.70;;
62024;SDS011;47978;49.118;12.146;2022-07-29T14:57:50;4.35;;;1.77;;
62024;SDS011;47978;49.118;12.146;2022-07-29T15:00:25;3.13;;;1.67;;
62024;SDS011;47978;49.118;12.146;2022-07-29T15:02:51;5.55;;;1.90;;
62024;SDS011;47978;49.118;12.146;2022-07-29T15:05:27;2.60;;;1.70;;
62024;SDS011;47978;49.118;12.146;2022-07-29T15:07:54;5.10;;;1.90;;
62024;SDS011;47978;49.118;12.146;2022-07-29T15:10:21;3.97;;;1.63;;
62024;SDS011;47978;49.118;12.146;2022-07-29T15:12:50;2.28;;;1.50;;
62024;SDS011;47978;49.118;12.146;2022-07-29T15:15:16;6.60;;;1.70;;